Terminal Aerodrome Forecast
Issued by NWS

Home | Current Version | Previous Version | Text Only | Print | Product List | Glossary On
Versions: 1 2 3 4 5 6 7 8 9 10 11 12 13 14 15 16 17
000
FTUS45 KPIH 281400 AAA
TAFSUN
TAF AMD
KSUN 281413Z 2814/2912 VRB06KT P6SM SCT015
     FM281900 VRB06KT P6SM BKN020
     FM290300 31008KT P6SM BKN200=

USA.gov is the U.S. government's official web portal to all federal, state and local government web resources and services.